createdAt,value
2022-07-29T00:01:55.980Z,100773.63
2022-07-29T00:04:25.434Z,100779.97
2022-07-29T00:06:54.970Z,100782.34
2022-07-29T00:09:26.932Z,100779.56
2022-07-29T00:11:57.521Z,100775.88
2022-07-29T00:14:26.879Z,100775.16
2022-07-29T00:16:56.282Z,100770.78
2022-07-29T00:19:25.801Z,100767.06
2022-07-29T00:21:55.302Z,100765.97
2022-07-29T00:24:27.277Z,100758.44
2022-07-29T00:26:56.741Z,100760.47
2022-07-29T00:29:34.673Z,100753.78
2022-07-29T00:32:04.664Z,100743.06
2022-07-29T00:34:46.888Z,100745.41
2022-07-29T00:37:16.281Z,100741.00
2022-07-29T00:39:48.215Z,100733.41
2022-07-29T00:42:17.640Z,100731.38
2022-07-29T00:44:47.024Z,100731.88
2022-07-29T00:47:16.460Z,100729.91
2022-07-29T00:49:46.106Z,100730.75
2022-07-29T00:52:17.216Z,100730.09
2022-07-29T00:54:49.430Z,100726.16
2022-07-29T00:57:18.949Z,100728.16
2022-07-29T00:59:48.346Z,100720.63
2022-07-29T01:02:17.795Z,100718.19
2022-07-29T01:04:47.309Z,100712.25
2022-07-29T01:07:16.828Z,100722.56
2022-07-29T01:09:49.687Z,100720.16
2022-07-29T01:12:22.664Z,100715.31
2022-07-29T01:14:53.168Z,100704.56
2022-07-29T01:17:27.686Z,100713.31
2022-07-29T01:20:04.519Z,100710.91
2022-07-29T01:22:48.300Z,100697.31
2022-07-29T01:25:38.251Z,100699.72
2022-07-29T01:28:27.063Z,100712.50
2022-07-29T01:30:59.742Z,100710.53
2022-07-29T01:33:43.113Z,100703.78
2022-07-29T01:36:16.965Z,100692.59
2022-07-29T01:38:50.912Z,100694.59
2022-07-29T01:41:23.119Z,100692.53
2022-07-29T01:43:57.326Z,100690.66
2022-07-29T01:46:35.661Z,100686.25
2022-07-29T01:49:10.691Z,100681.47
2022-07-29T01:51:45.273Z,100673.06
2022-07-29T01:54:18.309Z,100678.94
2022-07-29T01:56:50.815Z,100675.41
2022-07-29T01:59:22.214Z,100673.97
2022-07-29T02:01:57.810Z,100668.78
2022-07-29T02:04:29.729Z,100661.63
2022-07-29T02:07:05.534Z,100664.84
2022-07-29T02:09:39.706Z,100663.63
2022-07-29T02:12:11.110Z,100671.69
2022-07-29T02:14:44.657Z,100672.16
2022-07-29T02:17:21.254Z,100665.44
2022-07-29T02:19:52.224Z,100675.75
2022-07-29T02:22:23.885Z,100661.44
2022-07-29T02:24:55.104Z,100659.84
2022-07-29T02:27:26.308Z,100652.66
2022-07-29T02:29:57.116Z,100655.50
2022-07-29T02:32:31.136Z,100652.03
2022-07-29T02:35:02.674Z,100648.13
2022-07-29T02:37:34.453Z,100639.41
2022-07-29T02:40:04.085Z,100639.03
2022-07-29T02:42:37.042Z,100640.72
2022-07-29T02:45:07.228Z,100632.38
2022-07-29T02:47:44.493Z,100625.69
2022-07-29T02:50:19.084Z,100629.56
2022-07-29T02:52:56.122Z,100631.59
2022-07-29T02:55:30.739Z,100632.81
2022-07-29T02:58:05.021Z,100629.22
2022-07-29T03:00:38.489Z,100633.59
2022-07-29T03:03:14.661Z,100635.16
2022-07-29T03:05:44.705Z,100632.75
2022-07-29T03:08:15.637Z,100637.59
2022-07-29T03:10:48.428Z,100636.81
2022-07-29T03:13:18.416Z,100642.88
2022-07-29T03:15:48.527Z,100639.34
2022-07-29T03:18:21.320Z,100645.72
2022-07-29T03:20:50.739Z,100643.72
2022-07-29T03:23:24.793Z,100648.13
2022-07-29T03:25:54.787Z,100644.91
2022-07-29T03:28:24.762Z,100650.09
2022-07-29T03:30:56.575Z,100648.88
2022-07-29T03:33:30.086Z,100647.66
2022-07-29T03:35:59.502Z,100650.91
2022-07-29T03:38:33.312Z,100636.13
2022-07-29T03:41:07.021Z,100631.00
2022-07-29T03:43:39.856Z,100631.94
2022-07-29T03:46:21.605Z,100627.63
2022-07-29T03:48:59.421Z,100628.41
2022-07-29T03:51:33.156Z,100620.88
2022-07-29T03:54:09.470Z,100616.16
2022-07-29T03:56:45.589Z,100619.72
2022-07-29T03:59:16.458Z,100621.44
2022-07-29T04:01:46.711Z,100609.97
2022-07-29T04:04:19.221Z,100626.66
2022-07-29T04:06:50.316Z,100625.38
2022-07-29T04:09:19.660Z,100627.03
2022-07-29T04:11:56.989Z,100632.22
2022-07-29T04:14:34.881Z,100617.13
2022-07-29T04:17:05.074Z,100624.31
2022-07-29T04:19:37.347Z,100627.78
2022-07-29T04:22:06.913Z,100625.38
2022-07-29T04:24:36.330Z,100630.97
2022-07-29T04:27:05.672Z,100628.13
2022-07-29T04:29:35.075Z,100621.22
2022-07-29T04:32:04.442Z,100626.38
2022-07-29T04:34:33.869Z,100622.28
2022-07-29T04:37:06.256Z,100623.16
2022-07-29T04:39:35.638Z,100629.50
2022-07-29T04:42:05.061Z,100626.69
2022-07-29T04:44:39.721Z,100629.78
2022-07-29T04:47:12.746Z,100631.75
2022-07-29T04:49:42.301Z,100643.34
2022-07-29T04:52:14.308Z,100628.09
2022-07-29T04:54:43.658Z,100634.44
2022-07-29T04:57:13.026Z,100635.59
2022-07-29T04:59:42.356Z,100642.69
2022-07-29T05:02:11.728Z,100631.13
2022-07-29T05:04:41.161Z,100641.41
2022-07-29T05:07:10.666Z,100626.50
2022-07-29T05:09:42.672Z,100636.66
2022-07-29T05:12:12.950Z,100628.25
2022-07-29T05:14:42.399Z,100623.94
2022-07-29T05:17:11.921Z,100617.16
2022-07-29T05:19:41.391Z,100614.56
2022-07-29T05:22:10.852Z,100608.09
2022-07-29T05:24:42.760Z,100619.22
2022-07-29T05:27:12.446Z,100629.13
2022-07-29T05:29:44.438Z,100618.19
2022-07-29T05:32:15.217Z,100614.91
2022-07-29T05:34:50.955Z,100608.50
2022-07-29T05:37:21.313Z,100614.22
2022-07-29T05:39:56.722Z,100622.25
2022-07-29T05:42:27.001Z,100623.81
2022-07-29T05:44:56.904Z,100625.25
2022-07-29T05:47:26.947Z,100624.03
2022-07-29T05:49:56.449Z,100626.59
2022-07-29T05:52:25.914Z,100637.16
2022-07-29T05:54:57.979Z,100633.53
2022-07-29T05:57:28.038Z,100637.06
2022-07-29T05:59:57.541Z,100632.50
2022-07-29T06:02:28.795Z,100634.25
2022-07-29T06:04:58.277Z,100634.72
2022-07-29T06:07:27.826Z,100636.47
2022-07-29T06:09:59.837Z,100639.28
2022-07-29T06:12:29.317Z,100645.44
2022-07-29T06:14:58.921Z,100656.66
2022-07-29T06:17:28.392Z,100645.50
2022-07-29T06:19:57.937Z,100641.47
2022-07-29T06:22:27.492Z,100631.66
2022-07-29T06:24:59.579Z,100623.59
2022-07-29T06:27:29.134Z,100624.34
2022-07-29T06:29:59.724Z,100617.22
2022-07-29T06:32:29.111Z,100616.09
2022-07-29T06:35:24.406Z,100618.13
2022-07-29T06:37:47.879Z,100618.84
2022-07-29T06:40:33.681Z,100621.91
2022-07-29T06:43:03.173Z,100615.84
2022-07-29T06:45:32.659Z,100610.91
2022-07-29T06:48:02.305Z,100617.84
2022-07-29T06:50:31.842Z,100606.81
2022-07-29T06:53:01.338Z,100622.50
2022-07-29T06:55:33.631Z,100621.72
2022-07-29T06:58:03.020Z,100616.09
2022-07-29T07:00:32.357Z,100616.19
2022-07-29T07:03:02.061Z,100627.69
2022-07-29T07:05:31.443Z,100629.75
2022-07-29T07:08:00.871Z,100629.56
2022-07-29T07:10:32.978Z,100630.13
2022-07-29T07:13:02.948Z,100621.94
2022-07-29T07:15:39.218Z,100625.59
2022-07-29T07:18:10.326Z,100643.03
2022-07-29T07:20:40.671Z,100634.16
2022-07-29T07:23:10.225Z,100627.50
2022-07-29T07:25:43.109Z,100621.16
2022-07-29T07:28:12.544Z,100616.16
2022-07-29T07:30:42.895Z,100603.59
2022-07-29T07:33:12.311Z,100589.63
2022-07-29T07:35:41.837Z,100596.66
2022-07-29T07:38:11.357Z,100597.72
2022-07-29T07:40:44.232Z,100596.13
2022-07-29T07:43:13.826Z,100593.56
2022-07-29T07:45:43.300Z,100586.81
2022-07-29T07:48:13.353Z,100590.00
2022-07-29T07:50:43.022Z,100595.09
2022-07-29T07:53:12.738Z,100596.03
2022-07-29T07:56:09.437Z,100591.31
2022-07-29T07:58:36.384Z,100593.34
2022-07-29T08:01:06.031Z,100587.00
2022-07-29T08:03:36.654Z,100589.09
2022-07-29T08:06:06.926Z,100579.69
2022-07-29T08:08:36.380Z,100577.97
2022-07-29T08:11:09.703Z,100577.47
2022-07-29T08:13:40.545Z,100583.59
2022-07-29T08:16:16.793Z,100578.41
2022-07-29T08:18:48.922Z,100574.78
2022-07-29T08:21:18.755Z,100582.06
2022-07-29T08:23:59.608Z,100586.59
2022-07-29T08:26:33.205Z,100591.16
2022-07-29T08:29:02.581Z,100586.91
2022-07-29T08:31:32.067Z,100597.41
2022-07-29T08:34:01.668Z,100595.38
2022-07-29T08:36:31.075Z,100596.19
2022-07-29T08:39:01.517Z,100585.03
2022-07-29T08:41:33.542Z,100594.72
2022-07-29T08:44:02.990Z,100594.72
2022-07-29T08:46:32.447Z,100588.47
2022-07-29T08:49:01.960Z,100584.53
2022-07-29T08:51:31.927Z,100592.03
2022-07-29T08:54:01.607Z,100588.41
2022-07-29T08:56:33.806Z,100587.38
2022-07-29T08:59:06.684Z,100591.06
2022-07-29T09:01:42.707Z,100595.31
2022-07-29T09:04:15.881Z,100593.03
2022-07-29T09:06:48.474Z,100591.47
2022-07-29T09:09:18.225Z,100590.16
2022-07-29T09:11:50.469Z,100588.56
2022-07-29T09:14:19.838Z,100590.03
2022-07-29T09:17:02.418Z,100579.56
2022-07-29T09:19:35.287Z,100581.97
2022-07-29T09:22:08.184Z,100578.50
2022-07-29T09:24:42.937Z,100579.84
2022-07-29T09:27:24.061Z,100584.91
2022-07-29T09:30:00.757Z,100588.47
2022-07-29T09:32:30.952Z,100583.63
2022-07-29T09:35:18.883Z,100592.88
2022-07-29T09:37:48.979Z,100577.16
2022-07-29T09:40:20.811Z,100579.72
2022-07-29T09:42:53.883Z,100582.69
2022-07-29T09:45:33.734Z,100558.44
2022-07-29T09:48:16.441Z,100565.16
2022-07-29T09:50:50.811Z,100564.00
2022-07-29T09:53:34.788Z,100555.03
2022-07-29T09:56:04.563Z,100559.75
2022-07-29T09:58:36.997Z,100548.31
2022-07-29T10:01:06.935Z,100550.72
2022-07-29T10:03:36.434Z,100555.53
2022-07-29T10:06:10.986Z,100548.44
2022-07-29T10:08:42.048Z,100550.84
2022-07-29T10:11:16.143Z,100545.41
2022-07-29T10:13:49.358Z,100540.06
2022-07-29T10:16:19.951Z,100537.63
2022-07-29T10:18:50.020Z,100533.47
2022-07-29T10:21:35.334Z,100532.94
2022-07-29T10:24:05.989Z,100537.84
2022-07-29T10:26:36.557Z,100536.03
2022-07-29T10:29:08.810Z,100534.59
2022-07-29T10:31:51.683Z,100534.72
2022-07-29T10:34:35.604Z,100535.16
2022-07-29T10:37:13.763Z,100532.16
2022-07-29T10:39:59.383Z,100538.06
2022-07-29T10:45:24.929Z,100533.38
2022-07-29T10:48:07.972Z,100530.75
2022-07-29T10:51:03.994Z,100535.28
2022-07-29T10:53:52.105Z,100530.19
2022-07-29T10:56:30.632Z,100522.56
2022-07-29T10:59:32.394Z,100525.03
2022-07-29T11:02:43.837Z,100530.34
2022-07-29T11:05:16.609Z,100530.50
2022-07-29T11:08:20.543Z,100529.59
2022-07-29T11:10:50.769Z,100523.97
2022-07-29T11:13:51.396Z,100526.41
2022-07-29T11:16:24.937Z,100525.59
2022-07-29T11:19:29.828Z,100521.97
2022-07-29T11:22:03.083Z,100519.84
2022-07-29T11:24:35.568Z,100524.53
2022-07-29T11:27:19.864Z,100527.31
2022-07-29T11:29:58.572Z,100517.88
2022-07-29T11:32:38.781Z,100521.63
2022-07-29T11:35:18.670Z,100514.38
2022-07-29T11:41:31.874Z,100517.22
2022-07-29T11:44:03.303Z,100512.41
2022-07-29T11:46:50.180Z,100506.19
2022-07-29T11:52:14.241Z,100508.00
2022-07-29T11:54:57.902Z,100509.31
2022-07-29T11:57:36.798Z,100509.75
2022-07-29T12:00:12.682Z,100513.44
2022-07-29T12:02:48.741Z,100507.06
2022-07-29T12:05:36.182Z,100503.22
2022-07-29T12:08:20.701Z,100509.69
2022-07-29T12:10:51.292Z,100494.50
2022-07-29T12:13:37.043Z,100496.03
2022-07-29T12:16:08.196Z,100499.50
2022-07-29T12:18:37.552Z,100501.53
2022-07-29T12:21:08.718Z,100504.28
2022-07-29T12:23:38.319Z,100497.81
2022-07-29T12:26:11.134Z,100501.78
2022-07-29T12:28:57.714Z,100493.97
2022-07-29T12:31:42.817Z,100496.41
2022-07-29T12:34:14.371Z,100493.69
2022-07-29T12:36:44.743Z,100492.63
2022-07-29T12:39:15.120Z,100486.53
2022-07-29T12:41:44.542Z,100497.81
2022-07-29T12:44:16.488Z,100491.44
2022-07-29T12:46:47.642Z,100497.69
2022-07-29T12:49:25.366Z,100493.00
2022-07-29T12:51:55.081Z,100498.69
2022-07-29T12:54:25.460Z,100495.13
2022-07-29T12:57:05.202Z,100495.41
2022-07-29T12:59:37.242Z,100501.22
2022-07-29T13:02:07.960Z,100492.78
2022-07-29T13:04:37.650Z,100497.75
2022-07-29T13:07:10.555Z,100491.44
2022-07-29T13:09:41.685Z,100494.41
2022-07-29T13:12:12.389Z,100491.41
2022-07-29T13:14:46.174Z,100491.63
2022-07-29T13:17:17.596Z,100493.25
2022-07-29T13:19:49.215Z,100483.53
2022-07-29T13:22:20.490Z,100478.19
2022-07-29T13:24:54.460Z,100489.41
2022-07-29T13:27:25.636Z,100480.75
2022-07-29T13:29:58.782Z,100485.28
2022-07-29T13:32:29.239Z,100475.63
2022-07-29T13:34:59.126Z,100477.97
2022-07-29T13:37:30.913Z,100477.59
2022-07-29T13:40:00.574Z,100478.16
2022-07-29T13:42:30.311Z,100474.84
2022-07-29T13:45:02.392Z,100468.59
2022-07-29T13:47:33.289Z,100468.94
2022-07-29T13:50:03.179Z,100466.59
2022-07-29T13:52:32.839Z,100474.94
2022-07-29T13:55:02.494Z,100464.03
2022-07-29T13:57:32.930Z,100462.22
2022-07-29T14:00:05.558Z,100460.50
2022-07-29T14:02:34.961Z,100455.81
2022-07-29T14:05:08.283Z,100459.75
2022-07-29T14:07:37.952Z,100457.28
2022-07-29T14:10:08.364Z,100455.81
2022-07-29T14:12:37.730Z,100454.38
2022-07-29T14:15:10.805Z,100455.38
2022-07-29T14:17:40.185Z,100449.28
2022-07-29T14:20:10.447Z,100446.88
2022-07-29T14:22:42.620Z,100459.47
2022-07-29T14:25:15.710Z,100440.22
2022-07-29T14:27:45.492Z,100437.97
2022-07-29T14:30:18.232Z,100442.78
2022-07-29T14:32:47.586Z,100440.13
2022-07-29T14:35:17.212Z,100436.59
2022-07-29T14:37:46.652Z,100434.03
2022-07-29T14:40:16.045Z,100436.47
2022-07-29T14:42:45.437Z,100435.91
2022-07-29T14:45:17.449Z,100433.44
2022-07-29T14:47:47.004Z,100425.31
2022-07-29T14:50:17.184Z,100432.84
2022-07-29T14:52:52.853Z,100442.03
2022-07-29T14:55:22.505Z,100434.91
2022-07-29T14:57:53.388Z,100434.50
2022-07-29T15:00:27.466Z,100431.06
2022-07-29T15:03:02.172Z,100432.00
2022-07-29T15:05:32.129Z,100432.50
2022-07-29T15:08:02.272Z,100425.97
2022-07-29T15:10:31.750Z,100428.13
2022-07-29T15:13:01.225Z,100418.41
2022-07-29T15:15:33.129Z,100428.50
2022-07-29T15:18:02.467Z,100427.41
2022-07-29T15:20:31.917Z,100422.22
2022-07-29T15:23:01.330Z,100425.44
2022-07-29T15:25:30.778Z,100429.41
2022-07-29T15:28:03.245Z,100431.09
2022-07-29T15:30:41.717Z,100430.41
2022-07-29T15:33:12.549Z,100423.34
2022-07-29T15:35:42.006Z,100420.28
2022-07-29T15:38:11.625Z,100420.75
2022-07-29T15:40:44.231Z,100421.47
2022-07-29T15:43:13.709Z,100415.78
2022-07-29T15:46:07.925Z,100411.13
2022-07-29T15:48:41.161Z,100408.69
2022-07-29T15:51:10.578Z,100399.84
2022-07-29T15:53:40.038Z,100402.31
2022-07-29T15:56:09.388Z,100395.88
2022-07-29T15:58:38.829Z,100394.47
2022-07-29T16:01:11.452Z,100404.94
2022-07-29T16:03:45.705Z,100399.47
2022-07-29T16:06:15.798Z,100400.94
2022-07-29T16:08:46.365Z,100395.13
2022-07-29T16:11:16.151Z,100390.44
2022-07-29T16:13:45.557Z,100392.44
2022-07-29T16:16:18.593Z,100387.69
2022-07-29T16:18:48.810Z,100381.53
2022-07-29T16:21:18.306Z,100391.69
2022-07-29T16:23:48.112Z,100379.78
2022-07-29T16:26:17.448Z,100379.72
2022-07-29T16:28:49.331Z,100375.22
2022-07-29T16:31:25.011Z,100380.44
2022-07-29T16:33:56.011Z,100378.31
2022-07-29T16:36:25.789Z,100372.69
2022-07-29T16:38:55.263Z,100370.78
2022-07-29T16:41:24.683Z,100365.53
2022-07-29T16:43:55.315Z,100358.84
2022-07-29T16:46:27.386Z,100366.16
2022-07-29T16:48:56.848Z,100351.53
2022-07-29T16:51:26.243Z,100354.50
2022-07-29T16:53:55.577Z,100353.81
2022-07-29T16:56:25.000Z,100354.66
2022-07-29T16:58:54.346Z,100355.22
2022-07-29T17:01:23.767Z,100356.50
2022-07-29T17:04:11.993Z,100355.09
2022-07-29T17:06:43.353Z,100352.53
2022-07-29T17:09:15.088Z,100357.09
2022-07-29T17:11:53.135Z,100353.84
2022-07-29T17:14:25.068Z,100363.16
2022-07-29T17:17:01.319Z,100367.84
2022-07-29T17:19:36.361Z,100362.53
2022-07-29T17:22:13.083Z,100362.16
2022-07-29T17:24:45.617Z,100361.88
2022-07-29T17:27:15.368Z,100363.34
2022-07-29T17:29:44.915Z,100363.53
2022-07-29T17:32:14.805Z,100362.19
2022-07-29T17:34:47.121Z,100358.09
2022-07-29T17:37:16.547Z,100358.66
2022-07-29T17:39:46.087Z,100344.75
2022-07-29T17:42:17.509Z,100346.44
2022-07-29T17:44:46.816Z,100345.06
2022-07-29T17:47:16.670Z,100344.19
2022-07-29T17:49:48.986Z,100340.44
2022-07-29T17:52:18.765Z,100336.78
2022-07-29T17:54:49.232Z,100349.78
2022-07-29T17:57:18.685Z,100352.53
2022-07-29T17:59:48.027Z,100352.75
2022-07-29T18:02:18.048Z,100342.78
2022-07-29T18:04:50.571Z,100347.31
2022-07-29T18:07:20.102Z,100352.41
2022-07-29T18:09:49.466Z,100349.81
2022-07-29T18:12:18.816Z,100343.66
2022-07-29T18:14:48.233Z,100345.34
2022-07-29T18:17:17.957Z,100355.59
2022-07-29T18:19:49.889Z,100351.50
2022-07-29T18:22:19.237Z,100353.84
2022-07-29T18:24:48.631Z,100360.47
2022-07-29T18:27:18.210Z,100350.81
2022-07-29T18:29:51.138Z,100351.28
2022-07-29T18:32:29.223Z,100359.88
2022-07-29T18:35:02.748Z,100359.63
2022-07-29T18:38:00.833Z,100363.13
2022-07-29T18:40:23.691Z,100363.31
2022-07-29T18:42:53.105Z,100364.28
2022-07-29T18:45:22.790Z,100366.53
2022-07-29T18:47:59.103Z,100362.13
2022-07-29T18:50:31.739Z,100359.19
2022-07-29T18:53:03.374Z,100366.31
2022-07-29T18:55:32.857Z,100363.03
2022-07-29T18:58:02.251Z,100365.56
2022-07-29T19:00:31.714Z,100364.50
2022-07-29T19:03:03.244Z,100366.22
2022-07-29T19:05:35.562Z,100366.94
2022-07-29T19:08:05.020Z,100360.06
2022-07-29T19:10:34.346Z,100362.09
2022-07-29T19:13:03.749Z,100364.72
2022-07-29T19:15:33.078Z,100377.31
2022-07-29T19:18:02.510Z,100378.25
2022-07-29T19:20:31.986Z,100369.94
2022-07-29T19:23:03.876Z,100378.16
2022-07-29T19:25:35.642Z,100385.25
2022-07-29T19:28:05.649Z,100373.31
2022-07-29T19:30:35.460Z,100382.31
2022-07-29T19:33:04.966Z,100376.78
2022-07-29T19:35:34.578Z,100382.16
2022-07-29T19:38:06.554Z,100381.25
2022-07-29T19:40:36.145Z,100383.63
2022-07-29T19:43:51.239Z,100380.97
2022-07-29T19:45:55.456Z,100379.06
2022-07-29T19:48:25.138Z,100376.72
2022-07-29T19:50:54.553Z,100375.94
2022-07-29T19:53:26.535Z,100382.06
2022-07-29T19:55:55.914Z,100382.25
2022-07-29T19:58:26.984Z,100379.09
2022-07-29T20:00:56.659Z,100378.19
2022-07-29T20:03:26.076Z,100376.63
2022-07-29T20:05:55.583Z,100381.19
2022-07-29T20:08:27.680Z,100381.69
2022-07-29T20:10:57.357Z,100376.53
2022-07-29T20:13:26.800Z,100381.59
2022-07-29T20:15:56.268Z,100387.34
2022-07-29T20:18:25.788Z,100374.19
2022-07-29T20:20:57.224Z,100385.03
2022-07-29T20:23:29.242Z,100375.44
2022-07-29T20:26:06.062Z,100366.66
2022-07-29T20:28:37.199Z,100365.56
2022-07-29T20:31:06.676Z,100371.22
2022-07-29T20:33:36.106Z,100367.31
2022-07-29T20:36:05.472Z,100360.53
2022-07-29T20:38:37.550Z,100367.94
2022-07-29T20:41:07.145Z,100362.44
2022-07-29T20:43:39.183Z,100372.22
2022-07-29T20:46:08.969Z,100371.09
2022-07-29T20:48:39.811Z,100363.59
2022-07-29T20:51:09.379Z,100368.13
2022-07-29T20:53:43.128Z,100365.31
2022-07-29T20:56:12.630Z,100372.38
2022-07-29T20:58:42.895Z,100366.13
2022-07-29T21:01:12.829Z,100360.47
2022-07-29T21:03:42.221Z,100364.56
2022-07-29T21:06:11.769Z,100359.50
2022-07-29T21:08:43.707Z,100357.00
2022-07-29T21:11:13.337Z,100360.78
2022-07-29T21:13:44.992Z,100358.44
2022-07-29T21:16:18.800Z,100358.44
2022-07-29T21:18:49.820Z,100363.47
2022-07-29T21:21:19.570Z,100356.72
2022-07-29T21:23:52.617Z,100361.75
2022-07-29T21:26:22.235Z,100365.53
2022-07-29T21:28:50.136Z,100363.78
2022-07-29T21:31:20.106Z,100369.59
2022-07-29T21:33:50.010Z,100363.50
2022-07-29T21:36:47.187Z,100366.47
2022-07-29T21:39:11.358Z,100361.59
2022-07-29T21:41:41.038Z,100362.22
2022-07-29T21:44:10.735Z,100360.53
2022-07-29T21:46:40.453Z,100363.19
2022-07-29T21:49:11.412Z,100366.47
2022-07-29T21:51:41.038Z,100374.50
2022-07-29T21:54:13.270Z,100372.63
2022-07-29T21:56:43.603Z,100367.59
2022-07-29T21:59:20.907Z,100377.78
2022-07-29T22:01:53.537Z,100376.06
2022-07-29T22:04:23.218Z,100373.22
2022-07-29T22:06:52.876Z,100374.63
2022-07-29T22:09:25.145Z,100385.63
2022-07-29T22:11:54.596Z,100383.09
2022-07-29T22:14:30.306Z,100388.28
2022-07-29T22:17:00.824Z,100407.41
2022-07-29T22:19:30.604Z,100416.16
2022-07-29T22:22:00.456Z,100414.59
2022-07-29T22:24:32.715Z,100412.81
2022-07-29T22:27:02.467Z,100418.34
2022-07-29T22:29:32.391Z,100411.63
2022-07-29T22:32:01.882Z,100400.22
2022-07-29T22:34:31.782Z,100407.03
2022-07-29T22:37:07.840Z,100427.13
2022-07-29T22:39:39.944Z,100434.34
2022-07-29T22:42:11.890Z,100440.47
2022-07-29T22:44:41.280Z,100434.31
2022-07-29T22:47:10.890Z,100430.56
2022-07-29T22:49:40.282Z,100413.47
2022-07-29T22:52:09.984Z,100417.81
2022-07-29T22:54:42.001Z,100433.19
2022-07-29T22:57:11.411Z,100429.72
2022-07-29T22:59:40.919Z,100419.03
2022-07-29T23:02:10.326Z,100415.88
2022-07-29T23:04:39.753Z,100410.94
2022-07-29T23:07:09.109Z,100412.94
2022-07-29T23:09:38.493Z,100414.91
2022-07-29T23:12:11.644Z,100419.94
2022-07-29T23:14:41.089Z,100415.50
2022-07-29T23:17:10.555Z,100413.41
2022-07-29T23:19:40.085Z,100413.16
2022-07-29T23:22:09.472Z,100413.91
2022-07-29T23:24:38.949Z,100422.34
2022-07-29T23:27:12.910Z,100413.41
2022-07-29T23:29:43.033Z,100415.75
2022-07-29T23:32:12.438Z,100409.03
2022-07-29T23:34:42.146Z,100406.72
2022-07-29T23:37:11.588Z,100409.16
2022-07-29T23:39:40.952Z,100403.09
2022-07-29T23:42:12.892Z,100396.25
2022-07-29T23:44:42.270Z,100406.94
2022-07-29T23:47:11.792Z,100409.69
2022-07-29T23:49:41.278Z,100408.44
2022-07-29T23:52:10.671Z,100388.94
2022-07-29T23:54:40.081Z,100383.97
2022-07-29T23:57:09.727Z,100389.81
2022-07-29T23:59:41.665Z,100384.19
